createdAt,value
2019-01-05T00:01:06.509Z,2.3
2019-01-05T00:06:08.966Z,2.3
2019-01-05T00:11:11.449Z,2.3
2019-01-05T00:16:13.951Z,2.3
2019-01-05T00:21:19.575Z,2.3
2019-01-05T00:26:18.782Z,2.4
2019-01-05T00:31:21.256Z,2.4
2019-01-05T00:36:23.698Z,2.4
2019-01-05T00:41:26.152Z,2.4
2019-01-05T00:46:28.632Z,2.4
2019-01-05T00:51:31.088Z,2.4
2019-01-05T00:56:33.585Z,2.4
2019-01-05T01:01:35.989Z,2.4
2019-01-05T01:06:38.448Z,2.4
2019-01-05T01:11:40.903Z,2.4
2019-01-05T01:16:43.364Z,2.4
2019-01-05T01:21:45.812Z,2.4
2019-01-05T01:26:48.263Z,2.4
2019-01-05T01:31:50.727Z,2.4
2019-01-05T01:36:53.177Z,2.4
2019-01-05T01:41:55.634Z,2.4
2019-01-05T01:46:58.099Z,2.4
2019-01-05T01:52:00.554Z,2.4
2019-01-05T01:57:03.010Z,2.4
2019-01-05T02:02:05.474Z,2.4
2019-01-05T02:07:07.918Z,2.3
2019-01-05T02:12:10.388Z,2.3
2019-01-05T02:17:12.841Z,2.3
2019-01-05T02:22:15.301Z,2.3
2019-01-05T02:27:17.745Z,2.3
2019-01-05T02:32:20.481Z,2.3
2019-01-05T02:37:22.797Z,2.2
2019-01-05T02:42:25.113Z,2.2
2019-01-05T02:47:27.574Z,2.1
2019-01-05T02:52:30.025Z,2.1
2019-01-05T02:57:32.482Z,2.1
2019-01-05T03:02:34.955Z,2.1
2019-01-05T03:07:37.407Z,2.1
2019-01-05T03:12:39.871Z,2.1
2019-01-05T03:17:42.335Z,2
2019-01-05T03:22:44.787Z,2
2019-01-05T03:27:47.249Z,2
2019-01-05T03:32:49.718Z,2
2019-01-05T03:37:52.136Z,2
2019-01-05T03:42:54.616Z,2
2019-01-05T03:47:57.055Z,2
2019-01-05T03:52:59.506Z,2
2019-01-05T03:58:01.995Z,2
2019-01-05T04:03:04.450Z,2.1
2019-01-05T04:08:06.912Z,2.1
2019-01-05T04:13:09.342Z,2.1
2019-01-05T04:18:11.795Z,2.1
2019-01-05T04:23:14.299Z,2.2
2019-01-05T04:28:16.709Z,2.2
2019-01-05T04:33:19.169Z,2.1
2019-01-05T04:38:21.635Z,2.1
2019-01-05T04:43:24.067Z,2
2019-01-05T04:48:26.566Z,2
2019-01-05T04:53:28.992Z,2
2019-01-05T04:58:31.452Z,2
2019-01-05T05:03:33.959Z,2
2019-01-05T05:08:36.373Z,2
2019-01-05T05:13:38.862Z,1.9
2019-01-05T05:18:41.275Z,1.9
2019-01-05T05:23:43.837Z,1.9
2019-01-05T05:28:46.240Z,1.9
2019-01-05T05:33:48.678Z,1.9
2019-01-05T05:38:51.136Z,1.9
2019-01-05T05:43:53.562Z,1.9
2019-01-05T05:48:56.036Z,2
2019-01-05T05:53:58.481Z,2.1
2019-01-05T05:59:00.934Z,2.1
2019-01-05T06:04:03.395Z,2.2
2019-01-05T06:09:05.959Z,2.2
2019-01-05T06:14:08.314Z,2.3
2019-01-05T06:19:10.774Z,2.4
2019-01-05T06:24:13.210Z,2.5
2019-01-05T06:29:15.687Z,2.6
2019-01-05T06:34:18.128Z,2.6
2019-01-05T06:39:20.580Z,2.8
2019-01-05T06:44:23.029Z,2.8
2019-01-05T06:49:25.499Z,2.9
2019-01-05T06:54:27.945Z,2.9
2019-01-05T06:59:30.414Z,3
2019-01-05T07:04:32.855Z,3.1
2019-01-05T07:09:35.319Z,3.1
2019-01-05T07:14:37.824Z,3.2
2019-01-05T07:19:40.233Z,3.3
2019-01-05T07:24:42.693Z,3.3
2019-01-05T07:29:45.234Z,3.4
2019-01-05T07:34:47.599Z,3.4
2019-01-05T07:39:50.056Z,3.4
2019-01-05T07:44:52.509Z,3.5
2019-01-05T07:49:54.976Z,3.5
2019-01-05T07:54:57.424Z,3.6
2019-01-05T07:59:59.883Z,3.6
2019-01-05T08:05:02.442Z,3.7
2019-01-05T08:10:04.796Z,3.8
2019-01-05T08:15:07.267Z,3.8
2019-01-05T08:20:09.729Z,3.9
2019-01-05T08:25:12.201Z,3.9
2019-01-05T08:30:14.646Z,3.9
2019-01-05T08:35:17.080Z,4
2019-01-05T08:40:19.536Z,4
2019-01-05T08:45:22.001Z,4.1
2019-01-05T08:50:24.466Z,4.2
2019-01-05T08:55:26.957Z,4.2
2019-01-05T09:00:29.379Z,4.2
2019-01-05T09:05:31.877Z,4.2
2019-01-05T09:10:34.302Z,4.3
2019-01-05T09:15:36.753Z,4.4
2019-01-05T09:20:39.215Z,4.4
2019-01-05T09:25:42.142Z,4.5
2019-01-05T09:30:44.138Z,4.6
2019-01-05T09:35:46.580Z,4.6
2019-01-05T09:40:49.037Z,4.7
2019-01-05T09:45:51.509Z,4.7
2019-01-05T09:50:53.958Z,4.6
2019-01-05T09:55:56.416Z,4.6
2019-01-05T10:00:58.860Z,4.6
2019-01-05T10:06:01.376Z,4.6
2019-01-05T10:11:03.801Z,4.7
2019-01-05T10:16:06.245Z,4.7
2019-01-05T10:21:08.702Z,4.7
2019-01-05T10:26:11.163Z,4.7
2019-01-05T10:31:13.602Z,4.8
2019-01-05T10:36:16.067Z,4.8
2019-01-05T10:41:18.545Z,4.8
2019-01-05T10:46:20.982Z,4.9
2019-01-05T10:51:23.440Z,4.9
2019-01-05T10:56:25.899Z,5
2019-01-05T11:01:28.343Z,5.1
2019-01-05T11:06:30.814Z,5.1
2019-01-05T11:11:33.301Z,5.2
2019-01-05T11:16:35.717Z,5.2
2019-01-05T11:21:38.271Z,5.2
2019-01-05T11:26:40.673Z,5.2
2019-01-05T11:31:43.125Z,5.2
2019-01-05T11:36:45.600Z,5.2
2019-01-05T11:41:48.006Z,5.3
2019-01-05T11:46:50.486Z,5.3
2019-01-05T11:51:53.029Z,5.4
2019-01-05T11:56:55.416Z,5.4
2019-01-05T12:01:57.849Z,5.5
2019-01-05T12:07:00.379Z,5.5
2019-01-05T12:12:02.747Z,5.6
2019-01-05T12:17:05.203Z,5.6
2019-01-05T12:22:07.672Z,5.6
2019-01-05T12:27:10.284Z,5.5
2019-01-05T12:32:12.607Z,5.5
2019-01-05T12:37:15.049Z,5.6
2019-01-05T12:42:17.579Z,5.6
2019-01-05T12:47:19.947Z,5.5
2019-01-05T12:52:22.420Z,5.6
2019-01-05T12:57:24.860Z,5.7
2019-01-05T13:02:27.360Z,5.7
2019-01-05T13:07:29.785Z,5.7
2019-01-05T13:12:32.293Z,5.8
2019-01-05T13:17:34.692Z,5.7
2019-01-05T13:22:37.160Z,5.7
2019-01-05T13:27:39.627Z,5.7
2019-01-05T13:32:42.060Z,5.6
2019-01-05T13:37:44.517Z,5.6
2019-01-05T13:42:46.993Z,5.5
2019-01-05T13:47:49.534Z,5.5
2019-01-05T13:52:51.907Z,5.5
2019-01-05T13:57:54.352Z,5.5
2019-01-05T14:02:56.867Z,5.5
2019-01-05T14:07:59.299Z,5.5
2019-01-05T14:13:01.779Z,5.4
2019-01-05T14:18:04.316Z,5.4
2019-01-05T14:23:06.646Z,5.4
2019-01-05T14:28:09.093Z,5.4
2019-01-05T14:33:11.551Z,5.5
2019-01-05T14:38:14.006Z,5.5
2019-01-05T14:43:16.462Z,5.4
2019-01-05T14:48:19.209Z,5.4
2019-01-05T14:53:21.415Z,5.4
2019-01-05T14:58:23.877Z,5.4
2019-01-05T15:03:26.298Z,5.4
2019-01-05T15:08:28.751Z,5.4
2019-01-05T15:13:31.262Z,5.4
2019-01-05T15:18:33.708Z,5.4
2019-01-05T15:23:36.117Z,5.4
2019-01-05T15:28:38.587Z,5.4
2019-01-05T15:33:41.042Z,5.4
2019-01-05T15:38:43.524Z,5.4
2019-01-05T15:43:45.948Z,5.3
2019-01-05T15:48:48.409Z,5.3
2019-01-05T15:53:50.872Z,5.4
2019-01-05T15:58:53.373Z,5.4
2019-01-05T16:03:55.784Z,5.4
2019-01-05T16:08:58.257Z,5.3
2019-01-05T16:14:00.710Z,5.4
2019-01-05T16:19:03.185Z,5.3
2019-01-05T16:24:05.632Z,5.3
2019-01-05T16:29:08.059Z,5.4
2019-01-05T16:34:10.555Z,5.3
2019-01-05T16:39:12.992Z,5.3
2019-01-05T16:44:15.434Z,5.3
2019-01-05T16:49:17.897Z,5.4
2019-01-05T16:54:20.392Z,5.4
2019-01-05T16:59:22.856Z,5.4
2019-01-05T17:04:25.350Z,5.4
2019-01-05T17:09:27.741Z,5.3
2019-01-05T17:14:30.184Z,5.3
2019-01-05T17:19:36.410Z,5.3
2019-01-05T17:24:35.100Z,5.3
2019-01-05T17:29:37.565Z,5.4
2019-01-05T17:34:40.020Z,5.4
2019-01-05T17:39:42.472Z,5.4
2019-01-05T17:44:44.939Z,5.4
2019-01-05T17:49:47.414Z,5.4
2019-01-05T17:54:49.861Z,5.4
2019-01-05T17:59:52.334Z,5.3
2019-01-05T18:04:54.763Z,5.4
2019-01-05T18:09:57.246Z,5.3
2019-01-05T18:14:59.672Z,5.3
2019-01-05T18:20:02.160Z,5.4
2019-01-05T18:25:04.594Z,5.4
2019-01-05T18:30:07.097Z,5.3
2019-01-05T18:35:09.514Z,5.4
2019-01-05T18:40:11.976Z,5.4
2019-01-05T18:45:14.416Z,5.4
2019-01-05T18:50:16.879Z,5.4
2019-01-05T18:55:19.325Z,5.4
2019-01-05T19:00:22.011Z,5.3
2019-01-05T19:05:24.262Z,5.4
2019-01-05T19:10:26.741Z,5.4
2019-01-05T19:15:29.180Z,5.4
2019-01-05T19:20:31.628Z,5.3
2019-01-05T19:25:34.098Z,5.3
2019-01-05T19:30:36.866Z,5.2
2019-01-05T19:35:39.002Z,5.2
2019-01-05T19:40:41.454Z,5.2
2019-01-05T19:45:43.970Z,5.2
2019-01-05T19:50:46.405Z,5.1
2019-01-05T19:55:48.820Z,5.1
2019-01-05T20:00:51.303Z,5.1
2019-01-05T20:05:53.726Z,5.1
2019-01-05T20:10:56.196Z,5.1
2019-01-05T20:15:58.734Z,5.1
2019-01-05T20:21:01.179Z,5.1
2019-01-05T20:26:03.588Z,5.2
2019-01-05T20:31:06.025Z,5.2
2019-01-05T20:36:08.478Z,5.2
2019-01-05T20:41:10.927Z,5.1
2019-01-05T20:46:13.421Z,5.1
2019-01-05T20:51:15.879Z,5.1
2019-01-05T20:56:18.314Z,5
2019-01-05T21:01:20.768Z,5
2019-01-05T21:06:23.241Z,5
2019-01-05T21:11:25.683Z,5
2019-01-05T21:16:28.178Z,5
2019-01-05T21:21:30.590Z,4.9
2019-01-05T21:26:33.074Z,5
2019-01-05T21:31:35.504Z,4.9
2019-01-05T21:36:37.996Z,4.9
2019-01-05T21:41:40.414Z,5
2019-01-05T21:46:42.906Z,5
2019-01-05T21:51:45.330Z,4.9
2019-01-05T21:56:47.786Z,4.9
2019-01-05T22:01:50.260Z,4.7
2019-01-05T22:06:53.127Z,4.6
2019-01-05T22:11:55.232Z,4.6
2019-01-05T22:16:57.623Z,4.6
2019-01-05T22:22:00.089Z,4.7
2019-01-05T22:27:02.542Z,4.6
2019-01-05T22:32:05.015Z,4.6
2019-01-05T22:37:07.470Z,4.6
2019-01-05T22:42:09.946Z,4.6
2019-01-05T22:47:12.385Z,4.6
2019-01-05T22:52:14.829Z,4.5
2019-01-05T22:57:17.378Z,4.6
2019-01-05T23:02:19.735Z,4.6
2019-01-05T23:07:22.464Z,4.6
2019-01-05T23:12:24.662Z,4.5
2019-01-05T23:17:27.103Z,4.4
2019-01-05T23:22:29.561Z,4.4
2019-01-05T23:27:32.018Z,4.4
2019-01-05T23:32:34.478Z,4.4
2019-01-05T23:37:37.002Z,4.3
2019-01-05T23:42:39.393Z,4
2019-01-05T23:47:43.511Z,3.8
2019-01-05T23:52:44.311Z,3.6
2019-01-05T23:57:46.791Z,3.4
